sensor_id;sensor_type;location;lat;lon;timestamp;pressure;altitude;pressure_sealevel;temperature;humidity
2036;BME280;23642;42.658;23.350;2022-12-28T00:01:56;51426.59;;;-146.31;83.93
2036;BME280;23642;42.658;23.350;2022-12-28T00:04:23;51430.72;;;-146.31;83.79
2036;BME280;23642;42.658;23.350;2022-12-28T00:06:49;51430.72;;;-146.31;83.71
2036;BME280;23642;42.658;23.350;2022-12-28T00:09:17;51432.78;;;-146.31;83.76
2036;BME280;23642;42.658;23.350;2022-12-28T00:11:44;51426.59;;;-146.31;84.17
2036;BME280;23642;42.658;23.350;2022-12-28T00:14:10;51408.00;;;-146.31;84.52
2036;BME280;23642;42.658;23.350;2022-12-28T00:16:40;51412.16;;;-146.31;84.58
2036;BME280;23642;42.658;23.350;2022-12-28T00:19:10;51405.94;;;-146.31;84.98
2036;BME280;23642;42.658;23.350;2022-12-28T00:21:37;51408.00;;;-146.31;84.45
2036;BME280;23642;42.658;23.350;2022-12-28T00:24:05;51393.56;;;-146.31;84.22
2036;BME280;23642;42.658;23.350;2022-12-28T00:26:33;51410.06;;;-146.31;83.88
2036;BME280;23642;42.658;23.350;2022-12-28T00:29:01;51422.47;;;-146.31;83.50
2036;BME280;23642;42.658;23.350;2022-12-28T00:31:28;51428.66;;;-146.31;83.86
2036;BME280;23642;42.658;23.350;2022-12-28T00:33:56;51422.47;;;-146.31;83.32
2036;BME280;23642;42.658;23.350;2022-12-28T00:36:23;51391.50;;;-146.31;83.12
2036;BME280;23642;42.658;23.350;2022-12-28T00:38:50;51395.63;;;-146.31;82.75
2036;BME280;23642;42.658;23.350;2022-12-28T00:41:17;51418.34;;;-146.31;82.65
2036;BME280;23642;42.658;23.350;2022-12-28T00:43:43;51438.97;;;-146.31;82.27
2036;BME280;23642;42.658;23.350;2022-12-28T00:46:10;51426.59;;;-146.31;82.22
2036;BME280;23642;42.658;23.350;2022-12-28T00:48:37;51410.06;;;-146.31;82.46
2036;BME280;23642;42.658;23.350;2022-12-28T00:51:07;51436.91;;;-146.31;82.42
2036;BME280;23642;42.658;23.350;2022-12-28T00:53:37;51426.59;;;-146.31;82.12
2036;BME280;23642;42.658;23.350;2022-12-28T00:56:06;51418.34;;;-146.31;82.39
2036;BME280;23642;42.658;23.350;2022-12-28T00:58:33;51457.53;;;-146.31;82.67
2036;BME280;23642;42.658;23.350;2022-12-28T01:01:00;51443.09;;;-146.31;82.69
2036;BME280;23642;42.658;23.350;2022-12-28T01:03:26;51430.72;;;-146.31;82.48
2036;BME280;23642;42.658;23.350;2022-12-28T01:05:53;51455.47;;;-146.31;82.67
2036;BME280;23642;42.658;23.350;2022-12-28T01:08:22;51443.09;;;-146.31;82.87
2036;BME280;23642;42.658;23.350;2022-12-28T01:10:48;51438.97;;;-146.31;83.55
2036;BME280;23642;42.658;23.350;2022-12-28T01:13:15;51428.66;;;-146.31;84.31
2036;BME280;23642;42.658;23.350;2022-12-28T01:15:42;51405.94;;;-146.31;85.37
2036;BME280;23642;42.658;23.350;2022-12-28T01:18:09;51391.50;;;-146.31;86.37
2036;BME280;23642;42.658;23.350;2022-12-28T01:20:37;51422.47;;;-146.31;86.32
2036;BME280;23642;42.658;23.350;2022-12-28T01:23:04;51389.44;;;-146.31;86.30
2036;BME280;23642;42.658;23.350;2022-12-28T01:25:33;51405.94;;;-146.31;86.23
2036;BME280;23642;42.658;23.350;2022-12-28T01:28:00;51372.94;;;-146.31;86.30
2036;BME280;23642;42.658;23.350;2022-12-28T01:30:26;51399.75;;;-146.31;86.42
2036;BME280;23642;42.658;23.350;2022-12-28T01:32:54;51418.34;;;-146.31;86.09
2036;BME280;23642;42.658;23.350;2022-12-28T01:35:23;51395.63;;;-146.31;86.29
2036;BME280;23642;42.658;23.350;2022-12-28T01:37:50;51445.16;;;-146.31;85.89
2036;BME280;23642;42.658;23.350;2022-12-28T01:40:17;51420.41;;;-146.31;86.19
2036;BME280;23642;42.658;23.350;2022-12-28T01:42:45;51414.22;;;-146.31;86.45
2036;BME280;23642;42.658;23.350;2022-12-28T01:45:17;51445.16;;;-146.31;86.55
2036;BME280;23642;42.658;23.350;2022-12-28T01:47:45;51399.75;;;-146.31;86.68
2036;BME280;23642;42.658;23.350;2022-12-28T01:50:15;51422.47;;;-146.31;86.09
2036;BME280;23642;42.658;23.350;2022-12-28T01:52:46;51426.59;;;-146.31;86.13
2036;BME280;23642;42.658;23.350;2022-12-28T01:55:16;51449.28;;;-146.31;86.18
2036;BME280;23642;42.658;23.350;2022-12-28T01:57:49;51430.72;;;-146.31;86.12
2036;BME280;23642;42.658;23.350;2022-12-28T02:00:19;51455.47;;;-146.31;86.54
2036;BME280;23642;42.658;23.350;2022-12-28T02:02:50;51430.72;;;-146.31;86.58
2036;BME280;23642;42.658;23.350;2022-12-28T02:05:18;51426.59;;;-146.31;86.08
2036;BME280;23642;42.658;23.350;2022-12-28T02:07:50;51471.97;;;-146.31;85.73
2036;BME280;23642;42.658;23.350;2022-12-28T02:10:19;51463.72;;;-146.31;85.33
2036;BME280;23642;42.658;23.350;2022-12-28T02:12:47;51496.72;;;-146.31;85.04
2036;BME280;23642;42.658;23.350;2022-12-28T02:15:14;51488.47;;;-146.31;84.77
2036;BME280;23642;42.658;23.350;2022-12-28T02:17:41;51457.53;;;-146.31;84.66
2036;BME280;23642;42.658;23.350;2022-12-28T02:20:08;51471.97;;;-146.31;84.21
2036;BME280;23642;42.658;23.350;2022-12-28T02:29:13;51548.31;;;-146.31;83.22
2036;BME280;23642;42.658;23.350;2022-12-28T02:31:51;51525.59;;;-146.31;83.08
2036;BME280;23642;42.658;23.350;2022-12-28T02:34:25;51558.63;;;-146.31;82.46
2036;BME280;23642;42.658;23.350;2022-12-28T02:36:59;51550.38;;;-146.31;82.19
2036;BME280;23642;42.658;23.350;2022-12-28T02:39:32;51560.69;;;-146.31;81.88
2036;BME280;23642;42.658;23.350;2022-12-28T02:42:03;51579.25;;;-146.31;81.32
2036;BME280;23642;42.658;23.350;2022-12-28T02:44:31;51597.81;;;-146.31;81.46
2036;BME280;23642;42.658;23.350;2022-12-28T02:47:18;51583.38;;;-146.31;80.87
2036;BME280;23642;42.658;23.350;2022-12-28T02:50:16;51616.38;;;-146.31;80.09
2036;BME280;23642;42.658;23.350;2022-12-28T02:53:03;51645.28;;;-146.31;79.60
2036;BME280;23642;42.658;23.350;2022-12-28T02:55:42;51651.47;;;-146.31;79.35
2036;BME280;23642;42.658;23.350;2022-12-28T02:58:51;51686.53;;;-146.31;78.48
2036;BME280;23642;42.658;23.350;2022-12-28T03:01:29;51649.41;;;-146.31;77.53
2036;BME280;23642;42.658;23.350;2022-12-28T03:04:05;51665.91;;;-146.31;77.38
2036;BME280;23642;42.658;23.350;2022-12-28T03:06:42;51711.28;;;-146.31;77.39
2036;BME280;23642;42.658;23.350;2022-12-28T03:09:35;51690.66;;;-146.31;77.33
2036;BME280;23642;42.658;23.350;2022-12-28T03:12:06;51688.59;;;-146.31;76.90
2036;BME280;23642;42.658;23.350;2022-12-28T03:14:39;51698.91;;;-146.31;76.43
2036;BME280;23642;42.658;23.350;2022-12-28T03:17:11;51686.53;;;-146.31;75.62
2036;BME280;23642;42.658;23.350;2022-12-28T03:19:57;51725.72;;;-146.31;75.22
2036;BME280;23642;42.658;23.350;2022-12-28T03:22:44;51715.41;;;-146.31;76.01
2036;BME280;23642;42.658;23.350;2022-12-28T03:25:33;51705.09;;;-146.31;75.04
2036;BME280;23642;42.658;23.350;2022-12-28T03:28:21;51711.28;;;-146.31;75.67
2036;BME280;23642;42.658;23.350;2022-12-28T03:31:12;51719.53;;;-146.31;75.72
2036;BME280;23642;42.658;23.350;2022-12-28T03:33:43;51694.78;;;-146.31;75.29
2036;BME280;23642;42.658;23.350;2022-12-28T03:36:15;51719.53;;;-146.31;75.97
2036;BME280;23642;42.658;23.350;2022-12-28T03:38:48;51736.03;;;-146.31;76.36
2036;BME280;23642;42.658;23.350;2022-12-28T03:41:22;51721.59;;;-146.31;76.07
2036;BME280;23642;42.658;23.350;2022-12-28T03:43:55;51731.91;;;-146.31;76.32
2036;BME280;23642;42.658;23.350;2022-12-28T03:46:27;51748.44;;;-146.31;76.97
2036;BME280;23642;42.658;23.350;2022-12-28T03:48:59;51752.56;;;-146.31;76.15
2036;BME280;23642;42.658;23.350;2022-12-28T03:51:29;51733.97;;;-146.31;75.87
2036;BME280;23642;42.658;23.350;2022-12-28T03:53:56;51767.00;;;-146.31;76.06
2036;BME280;23642;42.658;23.350;2022-12-28T03:56:25;51771.13;;;-146.31;76.63
2036;BME280;23642;42.658;23.350;2022-12-28T03:58:52;51771.13;;;-146.31;76.58
2036;BME280;23642;42.658;23.350;2022-12-28T04:01:19;51773.19;;;-146.31;75.89
2036;BME280;23642;42.658;23.350;2022-12-28T04:03:46;51775.25;;;-146.31;75.18
2036;BME280;23642;42.658;23.350;2022-12-28T04:06:17;51769.06;;;-146.31;75.11
2036;BME280;23642;42.658;23.350;2022-12-28T04:08:45;51808.25;;;-146.31;75.21
2036;BME280;23642;42.658;23.350;2022-12-28T04:11:12;51777.31;;;-146.31;75.00
2036;BME280;23642;42.658;23.350;2022-12-28T04:13:39;51830.94;;;-146.31;75.33
2036;BME280;23642;42.658;23.350;2022-12-28T04:16:07;51791.75;;;-146.31;75.09
2036;BME280;23642;42.658;23.350;2022-12-28T04:18:35;51824.75;;;-146.31;75.13
2036;BME280;23642;42.658;23.350;2022-12-28T04:21:02;51800.00;;;-146.31;74.62
2036;BME280;23642;42.658;23.350;2022-12-28T04:23:30;51793.81;;;-146.31;75.14
2036;BME280;23642;42.658;23.350;2022-12-28T04:25:59;51837.16;;;-146.31;75.14
2036;BME280;23642;42.658;23.350;2022-12-28T04:28:27;51820.63;;;-146.31;75.61
2036;BME280;23642;42.658;23.350;2022-12-28T04:30:55;51810.31;;;-146.31;75.23
2036;BME280;23642;42.658;23.350;2022-12-28T04:33:22;51808.25;;;-146.31;74.45
2036;BME280;23642;42.658;23.350;2022-12-28T04:35:50;51808.25;;;-146.31;74.44
2036;BME280;23642;42.658;23.350;2022-12-28T04:38:17;51833.03;;;-146.31;73.80
2036;BME280;23642;42.658;23.350;2022-12-28T04:40:46;51816.50;;;-146.31;72.90
2036;BME280;23642;42.658;23.350;2022-12-28T04:43:13;51843.34;;;-146.31;72.86
2036;BME280;23642;42.658;23.350;2022-12-28T04:45:39;51837.16;;;-146.31;72.41
2036;BME280;23642;42.658;23.350;2022-12-28T04:48:06;51845.41;;;-146.31;71.71
2036;BME280;23642;42.658;23.350;2022-12-28T04:50:35;51870.16;;;-146.31;71.55
2036;BME280;23642;42.658;23.350;2022-12-28T04:53:02;51872.22;;;-146.31;71.70
2036;BME280;23642;42.658;23.350;2022-12-28T04:55:29;51890.78;;;-146.31;71.45
2036;BME280;23642;42.658;23.350;2022-12-28T04:57:57;51884.59;;;-146.31;71.11
2036;BME280;23642;42.658;23.350;2022-12-28T05:00:23;51901.09;;;-146.31;70.85
2036;BME280;23642;42.658;23.350;2022-12-28T05:02:50;51919.69;;;-146.31;70.50
2036;BME280;23642;42.658;23.350;2022-12-28T05:05:17;51880.47;;;-146.31;70.08
2036;BME280;23642;42.658;23.350;2022-12-28T05:07:43;51896.97;;;-146.31;70.53
2036;BME280;23642;42.658;23.350;2022-12-28T05:10:10;51921.75;;;-146.31;70.30
2036;BME280;23642;42.658;23.350;2022-12-28T05:12:37;51909.34;;;-146.31;70.46
2036;BME280;23642;42.658;23.350;2022-12-28T05:15:06;51930.00;;;-146.31;69.63
2036;BME280;23642;42.658;23.350;2022-12-28T05:17:33;51936.19;;;-146.31;70.03
2036;BME280;23642;42.658;23.350;2022-12-28T05:20:00;51917.63;;;-146.31;70.19
2036;BME280;23642;42.658;23.350;2022-12-28T05:22:26;51921.75;;;-146.31;69.65
2036;BME280;23642;42.658;23.350;2022-12-28T05:24:53;51917.63;;;-146.31;69.50
2036;BME280;23642;42.658;23.350;2022-12-28T05:27:20;51921.75;;;-146.31;69.15
2036;BME280;23642;42.658;23.350;2022-12-28T05:29:47;51942.38;;;-146.31;69.02
2036;BME280;23642;42.658;23.350;2022-12-28T05:32:15;51977.44;;;-146.31;68.81
2036;BME280;23642;42.658;23.350;2022-12-28T05:34:41;51948.56;;;-146.31;68.75
2036;BME280;23642;42.658;23.350;2022-12-28T05:37:08;51971.25;;;-146.31;68.98
2036;BME280;23642;42.658;23.350;2022-12-28T05:39:35;51967.13;;;-146.31;68.71
2036;BME280;23642;42.658;23.350;2022-12-28T05:42:02;51977.44;;;-146.31;68.10
2036;BME280;23642;42.658;23.350;2022-12-28T05:44:29;52016.66;;;-146.31;66.95
2036;BME280;23642;42.658;23.350;2022-12-28T05:46:56;52016.66;;;-146.31;67.28
2036;BME280;23642;42.658;23.350;2022-12-28T05:49:24;52020.78;;;-146.31;66.90
2036;BME280;23642;42.658;23.350;2022-12-28T05:51:51;52024.91;;;-146.31;66.76
2036;BME280;23642;42.658;23.350;2022-12-28T05:54:18;52041.41;;;-146.31;66.88
2036;BME280;23642;42.658;23.350;2022-12-28T05:56:45;52047.59;;;-146.31;66.98
2036;BME280;23642;42.658;23.350;2022-12-28T05:59:15;52080.63;;;-146.31;66.43
2036;BME280;23642;42.658;23.350;2022-12-28T06:01:42;52078.56;;;-146.31;66.58
2036;BME280;23642;42.658;23.350;2022-12-28T06:04:13;52078.56;;;-146.31;66.65
2036;BME280;23642;42.658;23.350;2022-12-28T06:06:42;52064.09;;;-146.31;66.48
2036;BME280;23642;42.658;23.350;2022-12-28T06:09:09;52086.81;;;-146.31;66.77
2036;BME280;23642;42.658;23.350;2022-12-28T06:11:36;52043.47;;;-146.31;67.45
2036;BME280;23642;42.658;23.350;2022-12-28T06:14:03;52059.97;;;-146.31;67.18
2036;BME280;23642;42.658;23.350;2022-12-28T06:16:33;52074.44;;;-146.31;67.43
2036;BME280;23642;42.658;23.350;2022-12-28T06:19:03;52074.44;;;-146.31;67.15
2036;BME280;23642;42.658;23.350;2022-12-28T06:21:48;52068.22;;;-146.31;67.55
2036;BME280;23642;42.658;23.350;2022-12-28T06:24:14;52076.50;;;-146.31;67.80
2036;BME280;23642;42.658;23.350;2022-12-28T06:26:43;52053.78;;;-146.31;67.80
2036;BME280;23642;42.658;23.350;2022-12-28T06:29:10;52053.78;;;-146.31;67.63
2036;BME280;23642;42.658;23.350;2022-12-28T06:31:39;52059.97;;;-146.31;68.37
2036;BME280;23642;42.658;23.350;2022-12-28T06:34:07;52047.59;;;-146.31;67.95
2036;BME280;23642;42.658;23.350;2022-12-28T06:36:36;52057.91;;;-146.31;68.04
2036;BME280;23642;42.658;23.350;2022-12-28T06:39:07;52022.84;;;-146.31;67.95
2036;BME280;23642;42.658;23.350;2022-12-28T06:41:34;52024.91;;;-146.31;68.17
2036;BME280;23642;42.658;23.350;2022-12-28T06:44:04;52041.41;;;-146.31;68.42
2036;BME280;23642;42.658;23.350;2022-12-28T06:46:31;52039.34;;;-146.31;68.19
2036;BME280;23642;42.658;23.350;2022-12-28T06:48:58;52010.47;;;-146.31;68.52
2036;BME280;23642;42.658;23.350;2022-12-28T06:51:26;52029.03;;;-146.31;68.52
2036;BME280;23642;42.658;23.350;2022-12-28T06:53:54;52031.09;;;-146.31;68.68
2036;BME280;23642;42.658;23.350;2022-12-28T06:56:24;52033.16;;;-146.31;68.79
2036;BME280;23642;42.658;23.350;2022-12-28T06:58:52;52024.91;;;-146.31;68.79
2036;BME280;23642;42.658;23.350;2022-12-28T07:01:20;52033.16;;;-146.31;68.61
2036;BME280;23642;42.658;23.350;2022-12-28T07:03:49;51996.03;;;-146.31;68.39
2036;BME280;23642;42.658;23.350;2022-12-28T07:06:19;51993.94;;;-146.31;68.23
2036;BME280;23642;42.658;23.350;2022-12-28T07:08:46;51983.63;;;-146.31;68.45
2036;BME280;23642;42.658;23.350;2022-12-28T07:11:16;52016.66;;;-146.31;68.33
2036;BME280;23642;42.658;23.350;2022-12-28T07:13:44;52020.78;;;-146.31;68.61
2036;BME280;23642;42.658;23.350;2022-12-28T07:16:13;51993.94;;;-146.31;68.60
2036;BME280;23642;42.658;23.350;2022-12-28T07:18:40;51993.94;;;-146.31;68.49
2036;BME280;23642;42.658;23.350;2022-12-28T07:21:10;51979.50;;;-146.31;67.74
2036;BME280;23642;42.658;23.350;2022-12-28T07:23:37;51971.25;;;-146.31;67.41
2036;BME280;23642;42.658;23.350;2022-12-28T07:26:06;51993.94;;;-146.31;67.25
2036;BME280;23642;42.658;23.350;2022-12-28T07:28:35;51958.88;;;-146.31;66.76
2036;BME280;23642;42.658;23.350;2022-12-28T07:31:05;52008.41;;;-146.31;66.65
2036;BME280;23642;42.658;23.350;2022-12-28T07:33:33;51979.50;;;-146.31;65.50
2036;BME280;23642;42.658;23.350;2022-12-28T07:36:00;51987.75;;;-146.31;65.48
2036;BME280;23642;42.658;23.350;2022-12-28T07:38:27;51963.00;;;-146.31;64.71
2036;BME280;23642;42.658;23.350;2022-12-28T07:41:00;52035.22;;;-146.31;64.76
2036;BME280;23642;42.658;23.350;2022-12-28T07:43:27;52037.28;;;-146.31;65.63
2036;BME280;23642;42.658;23.350;2022-12-28T07:45:59;51960.94;;;-146.31;64.55
2036;BME280;23642;42.658;23.350;2022-12-28T07:48:29;51946.50;;;-146.31;64.45
2036;BME280;23642;42.658;23.350;2022-12-28T07:50:56;51960.94;;;-146.31;64.70
2036;BME280;23642;42.658;23.350;2022-12-28T07:53:23;51965.06;;;-146.31;65.19
2036;BME280;23642;42.658;23.350;2022-12-28T07:55:54;51942.38;;;-146.31;65.42
2036;BME280;23642;42.658;23.350;2022-12-28T07:58:21;51936.19;;;-146.31;65.93
2036;BME280;23642;42.658;23.350;2022-12-28T08:00:48;51975.38;;;-146.31;66.15
2036;BME280;23642;42.658;23.350;2022-12-28T08:03:15;51948.56;;;-146.31;66.68
2036;BME280;23642;42.658;23.350;2022-12-28T08:05:43;51938.25;;;-146.31;66.82
2036;BME280;23642;42.658;23.350;2022-12-28T08:08:10;51973.31;;;-146.31;66.40
2036;BME280;23642;42.658;23.350;2022-12-28T08:10:37;51950.63;;;-146.31;66.99
2036;BME280;23642;42.658;23.350;2022-12-28T08:13:04;51932.06;;;-146.31;66.44
2036;BME280;23642;42.658;23.350;2022-12-28T08:15:31;51987.75;;;-146.31;66.40
2036;BME280;23642;42.658;23.350;2022-12-28T08:17:57;51946.50;;;-146.31;67.04
2036;BME280;23642;42.658;23.350;2022-12-28T08:20:24;51960.94;;;-146.31;65.84
2036;BME280;23642;42.658;23.350;2022-12-28T08:22:52;51950.63;;;-146.31;66.69
2036;BME280;23642;42.658;23.350;2022-12-28T08:25:19;51938.25;;;-146.31;66.33
2036;BME280;23642;42.658;23.350;2022-12-28T08:27:46;51963.00;;;-146.31;66.69
2036;BME280;23642;42.658;23.350;2022-12-28T08:30:13;52000.16;;;-146.31;66.76
2036;BME280;23642;42.658;23.350;2022-12-28T08:32:40;51991.88;;;-146.31;67.08
2036;BME280;23642;42.658;23.350;2022-12-28T08:35:07;51985.69;;;-146.31;66.91
2036;BME280;23642;42.658;23.350;2022-12-28T08:37:36;52006.34;;;-146.31;66.38
2036;BME280;23642;42.658;23.350;2022-12-28T08:40:07;52008.41;;;-146.31;66.17
2036;BME280;23642;42.658;23.350;2022-12-28T08:42:34;51983.63;;;-146.31;66.30
2036;BME280;23642;42.658;23.350;2022-12-28T08:45:01;52002.22;;;-146.31;65.65
2036;BME280;23642;42.658;23.350;2022-12-28T08:47:28;52012.53;;;-146.31;65.71
2036;BME280;23642;42.658;23.350;2022-12-28T08:49:54;52026.97;;;-146.31;66.08
2036;BME280;23642;42.658;23.350;2022-12-28T08:52:21;52031.09;;;-146.31;66.03
2036;BME280;23642;42.658;23.350;2022-12-28T08:54:49;52022.84;;;-146.31;66.09
2036;BME280;23642;42.658;23.350;2022-12-28T08:57:17;52029.03;;;-146.31;66.08
2036;BME280;23642;42.658;23.350;2022-12-28T08:59:43;52029.03;;;-146.31;66.21
2036;BME280;23642;42.658;23.350;2022-12-28T09:02:12;52024.91;;;-146.31;64.63
2036;BME280;23642;42.658;23.350;2022-12-28T09:04:41;52016.66;;;-146.31;64.39
2036;BME280;23642;42.658;23.350;2022-12-28T09:07:08;52008.41;;;-146.31;64.24
2036;BME280;23642;42.658;23.350;2022-12-28T09:09:34;52037.28;;;-146.31;65.53
2036;BME280;23642;42.658;23.350;2022-12-28T09:12:01;52055.84;;;-146.31;65.25
2036;BME280;23642;42.658;23.350;2022-12-28T09:14:29;52024.91;;;-146.31;64.96
2036;BME280;23642;42.658;23.350;2022-12-28T09:16:56;52022.84;;;-146.31;64.27
2036;BME280;23642;42.658;23.350;2022-12-28T09:19:23;52022.84;;;-146.31;65.66
2036;BME280;23642;42.658;23.350;2022-12-28T09:21:50;52053.78;;;-146.31;64.88
2036;BME280;23642;42.658;23.350;2022-12-28T09:24:19;52035.22;;;-146.31;65.59
2036;BME280;23642;42.658;23.350;2022-12-28T09:26:46;52086.81;;;-146.31;64.47
2036;BME280;23642;42.658;23.350;2022-12-28T09:29:15;52097.13;;;-146.31;64.93
2036;BME280;23642;42.658;23.350;2022-12-28T09:31:43;52082.69;;;-146.31;64.55
2036;BME280;23642;42.658;23.350;2022-12-28T09:34:11;52113.63;;;-146.31;64.71
2036;BME280;23642;42.658;23.350;2022-12-28T09:36:39;52119.81;;;-146.31;64.82
2036;BME280;23642;42.658;23.350;2022-12-28T09:39:08;52078.56;;;-146.31;64.20
2036;BME280;23642;42.658;23.350;2022-12-28T09:41:40;52059.97;;;-146.31;64.02
2036;BME280;23642;42.658;23.350;2022-12-28T09:44:24;52103.31;;;-146.31;63.61
2036;BME280;23642;42.658;23.350;2022-12-28T09:46:58;52097.13;;;-146.31;63.72
2036;BME280;23642;42.658;23.350;2022-12-28T09:49:34;52103.31;;;-146.31;63.43
2036;BME280;23642;42.658;23.350;2022-12-28T09:52:16;52076.50;;;-146.31;62.65
2036;BME280;23642;42.658;23.350;2022-12-28T09:54:48;52082.69;;;-146.31;62.38
2036;BME280;23642;42.658;23.350;2022-12-28T09:57:16;52062.03;;;-146.31;61.89
2036;BME280;23642;42.658;23.350;2022-12-28T09:59:44;52062.03;;;-146.31;62.16
2036;BME280;23642;42.658;23.350;2022-12-28T10:02:18;52099.19;;;-146.31;62.30
2036;BME280;23642;42.658;23.350;2022-12-28T10:04:49;52053.78;;;-146.31;61.58
2036;BME280;23642;42.658;23.350;2022-12-28T10:07:16;52099.19;;;-146.31;63.50
2036;BME280;23642;42.658;23.350;2022-12-28T10:09:44;52045.53;;;-146.31;62.93
2036;BME280;23642;42.658;23.350;2022-12-28T10:12:14;52103.31;;;-146.31;61.82
2036;BME280;23642;42.658;23.350;2022-12-28T10:14:44;52095.06;;;-146.31;61.80
2036;BME280;23642;42.658;23.350;2022-12-28T10:17:12;52076.50;;;-146.31;61.89
2036;BME280;23642;42.658;23.350;2022-12-28T10:19:48;52088.88;;;-146.31;61.05
2036;BME280;23642;42.658;23.350;2022-12-28T10:22:17;52097.13;;;-146.31;62.17
2036;BME280;23642;42.658;23.350;2022-12-28T10:24:45;52082.69;;;-146.31;61.70
2036;BME280;23642;42.658;23.350;2022-12-28T10:27:19;52086.81;;;-146.31;61.08
2036;BME280;23642;42.658;23.350;2022-12-28T10:29:47;52086.81;;;-146.31;61.18
2036;BME280;23642;42.658;23.350;2022-12-28T10:32:15;52078.56;;;-146.31;59.94
2036;BME280;23642;42.658;23.350;2022-12-28T10:34:53;52103.31;;;-146.31;59.83
2036;BME280;23642;42.658;23.350;2022-12-28T10:37:20;52086.81;;;-146.31;60.00
2036;BME280;23642;42.658;23.350;2022-12-28T10:39:51;52080.63;;;-146.31;59.93
2036;BME280;23642;42.658;23.350;2022-12-28T10:42:23;52037.28;;;-146.31;58.83
2036;BME280;23642;42.658;23.350;2022-12-28T10:44:51;52076.50;;;-146.31;58.56
2036;BME280;23642;42.658;23.350;2022-12-28T10:47:31;52037.28;;;-146.31;58.56
2036;BME280;23642;42.658;23.350;2022-12-28T10:50:03;52053.78;;;-146.31;59.15
2036;BME280;23642;42.658;23.350;2022-12-28T10:52:30;52031.09;;;-146.31;58.38
2036;BME280;23642;42.658;23.350;2022-12-28T10:55:25;52078.56;;;-146.31;57.66
2036;BME280;23642;42.658;23.350;2022-12-28T10:57:53;52115.69;;;-146.31;57.16
2036;BME280;23642;42.658;23.350;2022-12-28T11:00:21;52088.88;;;-146.31;57.91
2036;BME280;23642;42.658;23.350;2022-12-28T11:02:48;52152.84;;;-146.31;58.61
2036;BME280;23642;42.658;23.350;2022-12-28T11:05:21;52165.22;;;-146.31;59.11
2036;BME280;23642;42.658;23.350;2022-12-28T11:07:48;52150.78;;;-146.31;59.58
2036;BME280;23642;42.658;23.350;2022-12-28T11:10:22;52140.44;;;-146.31;58.75
2036;BME280;23642;42.658;23.350;2022-12-28T11:12:51;52132.19;;;-146.31;58.48
2036;BME280;23642;42.658;23.350;2022-12-28T11:15:20;52134.25;;;-146.31;58.10
2036;BME280;23642;42.658;23.350;2022-12-28T11:17:52;52138.38;;;-146.31;57.84
2036;BME280;23642;42.658;23.350;2022-12-28T11:20:23;52111.56;;;-146.31;57.96
2036;BME280;23642;42.658;23.350;2022-12-28T11:22:51;52136.31;;;-146.31;57.58
2036;BME280;23642;42.658;23.350;2022-12-28T11:25:22;52140.44;;;-146.31;58.11
2036;BME280;23642;42.658;23.350;2022-12-28T11:27:52;52138.38;;;-146.31;58.07
2036;BME280;23642;42.658;23.350;2022-12-28T11:30:19;52171.41;;;-146.31;58.12
2036;BME280;23642;42.658;23.350;2022-12-28T11:32:50;52161.09;;;-146.31;58.31
2036;BME280;23642;42.658;23.350;2022-12-28T11:35:19;52142.53;;;-146.31;58.37
2036;BME280;23642;42.658;23.350;2022-12-28T11:37:50;52187.91;;;-146.31;58.01
2036;BME280;23642;42.658;23.350;2022-12-28T11:40:46;52148.72;;;-146.31;57.63
2036;BME280;23642;42.658;23.350;2022-12-28T11:43:35;52177.59;;;-146.31;57.93
2036;BME280;23642;42.658;23.350;2022-12-28T11:46:05;52169.34;;;-146.31;58.24
2036;BME280;23642;42.658;23.350;2022-12-28T11:48:47;52192.03;;;-146.31;58.03
2036;BME280;23642;42.658;23.350;2022-12-28T11:51:17;52169.34;;;-146.31;58.75
2036;BME280;23642;42.658;23.350;2022-12-28T11:53:53;52171.41;;;-146.31;59.76
2036;BME280;23642;42.658;23.350;2022-12-28T11:56:23;52130.13;;;-146.31;60.46
2036;BME280;23642;42.658;23.350;2022-12-28T11:59:04;52132.19;;;-146.31;61.11
2036;BME280;23642;42.658;23.350;2022-12-28T12:01:53;52183.78;;;-146.31;62.38
2036;BME280;23642;42.658;23.350;2022-12-28T12:04:33;52123.94;;;-146.31;63.03
2036;BME280;23642;42.658;23.350;2022-12-28T12:07:46;52113.63;;;-146.31;63.88
2036;BME280;23642;42.658;23.350;2022-12-28T12:10:26;52111.56;;;-146.31;64.47
2036;BME280;23642;42.658;23.350;2022-12-28T12:12:54;52113.63;;;-146.31;64.50
2036;BME280;23642;42.658;23.350;2022-12-28T12:15:25;52086.81;;;-146.31;64.19
2036;BME280;23642;42.658;23.350;2022-12-28T12:17:59;52084.75;;;-146.31;65.31
2036;BME280;23642;42.658;23.350;2022-12-28T12:20:41;52117.75;;;-146.31;65.88
2036;BME280;23642;42.658;23.350;2022-12-28T12:26:51;52047.59;;;-146.31;67.86
2036;BME280;23642;42.658;23.350;2022-12-28T12:29:22;52033.16;;;-146.31;68.23
2036;BME280;23642;42.658;23.350;2022-12-28T12:31:56;52055.84;;;-146.31;69.89
2036;BME280;23642;42.658;23.350;2022-12-28T12:34:31;52066.16;;;-146.31;70.15
2036;BME280;23642;42.658;23.350;2022-12-28T12:37:32;52066.16;;;-146.31;69.58
2036;BME280;23642;42.658;23.350;2022-12-28T12:43:21;52059.97;;;-146.31;69.50
2036;BME280;23642;42.658;23.350;2022-12-28T12:45:56;52055.84;;;-146.31;68.58
2036;BME280;23642;42.658;23.350;2022-12-28T12:48:41;52037.28;;;-146.31;68.82
2036;BME280;23642;42.658;23.350;2022-12-28T12:51:23;52012.53;;;-146.31;69.61
2036;BME280;23642;42.658;23.350;2022-12-28T12:54:02;52037.28;;;-146.31;68.35
2036;BME280;23642;42.658;23.350;2022-12-28T12:56:40;52012.53;;;-146.31;67.86
2036;BME280;23642;42.658;23.350;2022-12-28T12:59:33;52086.81;;;-146.31;67.15
2036;BME280;23642;42.658;23.350;2022-12-28T13:02:16;52076.50;;;-146.31;66.40
2036;BME280;23642;42.658;23.350;2022-12-28T13:04:45;52084.75;;;-146.31;65.62
2036;BME280;23642;42.658;23.350;2022-12-28T13:07:17;52109.50;;;-146.31;65.79
2036;BME280;23642;42.658;23.350;2022-12-28T13:09:45;52086.81;;;-146.31;65.55
2036;BME280;23642;42.658;23.350;2022-12-28T13:12:15;52086.81;;;-146.31;65.47